McKinley Park, Alaska
Current Conditions -  °F | °C
As of 2:36 PM on Friday 19 Dec 2014 (Local Time) from PAIN Reporting Station
Clear Clear  
Wind Chill:   Ceiling: Unl
Heat Index:   Visibility: 10mi
Dew Point: -2°   Wind: 0mph
Humidity: 92%   Direction: NA
Pressure: 29.16"   Gusts: NA
Location:  63.73°N, 148.91°W
Report Text: PAIN 192336Z AUTO 00000KT 10SM CLR M18/M19 A2916 RMK AO1
Loading
Personal Weather Stations






























Interactive Weather Map New forecast layout! Learn more

10-Day Weather Forecast

Advertisements
Track Severe Weather on mobile